METAR Gardermoen

ENGM 162120Z 24004KT 9999 -RA FEW025 BKN080 09/04 Q1014

Webcam Kjeller

Webcam Eggemoen